sensor_id;sensor_type;location;lat;lon;timestamp;pressure;altitude;pressure_sealevel;temperature;humidity
14882;BME280;7533;51.278;12.588;2023-04-04T00:01:01;101405.34;;;21.66;61.36
14882;BME280;7533;51.278;12.588;2023-04-04T00:06:06;101396.69;;;21.61;61.74
14882;BME280;7533;51.278;12.588;2023-04-04T00:11:09;101401.44;;;21.56;61.80
14882;BME280;7533;51.278;12.588;2023-04-04T00:16:12;101406.97;;;21.53;61.79
14882;BME280;7533;51.278;12.588;2023-04-04T00:21:16;101393.81;;;21.47;62.01
14882;BME280;7533;51.278;12.588;2023-04-04T00:26:19;101402.94;;;21.44;62.22
14882;BME280;7533;51.278;12.588;2023-04-04T00:31:23;101388.66;;;21.42;62.12
14882;BME280;7533;51.278;12.588;2023-04-04T00:36:27;101383.50;;;21.37;62.33
14882;BME280;7533;51.278;12.588;2023-04-04T00:41:30;101385.41;;;21.35;62.28
14882;BME280;7533;51.278;12.588;2023-04-04T00:46:33;101384.69;;;21.32;62.33
14882;BME280;7533;51.278;12.588;2023-04-04T00:51:37;101390.22;;;21.29;62.65
14882;BME280;7533;51.278;12.588;2023-04-04T00:56:40;101384.09;;;21.25;62.70
14882;BME280;7533;51.278;12.588;2023-04-04T01:01:43;101376.19;;;21.22;62.72
14882;BME280;7533;51.278;12.588;2023-04-04T01:06:47;101374.53;;;21.20;62.98
14882;BME280;7533;51.278;12.588;2023-04-04T01:11:52;101375.63;;;21.16;62.81
14882;BME280;7533;51.278;12.588;2023-04-04T01:16:58;101373.97;;;21.13;62.98
14882;BME280;7533;51.278;12.588;2023-04-04T01:22:05;101367.81;;;21.11;63.23
14882;BME280;7533;51.278;12.588;2023-04-04T01:27:11;101374.19;;;21.08;63.00
14882;BME280;7533;51.278;12.588;2023-04-04T01:32:35;101365.34;;;21.06;63.02
14882;BME280;7533;51.278;12.588;2023-04-04T01:37:44;101367.22;;;21.04;63.28
14882;BME280;7533;51.278;12.588;2023-04-04T01:42:54;101371.81;;;21.02;63.16
14882;BME280;7533;51.278;12.588;2023-04-04T01:47:58;101365.69;;;20.99;63.21
14882;BME280;7533;51.278;12.588;2023-04-04T01:53:01;101365.78;;;20.97;63.21
14882;BME280;7533;51.278;12.588;2023-04-04T01:58:05;101356.06;;;20.95;63.35
14882;BME280;7533;51.278;12.588;2023-04-04T02:03:08;101357.94;;;20.93;63.44
14882;BME280;7533;51.278;12.588;2023-04-04T02:08:11;101356.19;;;20.92;63.42
14882;BME280;7533;51.278;12.588;2023-04-04T02:13:24;101351.84;;;20.89;63.50
14882;BME280;7533;51.278;12.588;2023-04-04T02:18:29;101353.72;;;20.87;63.79
14882;BME280;7533;51.278;12.588;2023-04-04T02:23:32;101347.56;;;20.85;63.61
14882;BME280;7533;51.278;12.588;2023-04-04T02:28:36;101342.28;;;20.83;63.82
14882;BME280;7533;51.278;12.588;2023-04-04T02:33:39;101337.91;;;20.81;63.80
14882;BME280;7533;51.278;12.588;2023-04-04T02:38:43;101331.72;;;20.79;63.97
14882;BME280;7533;51.278;12.588;2023-04-04T02:43:47;101328.25;;;20.77;63.94
14882;BME280;7533;51.278;12.588;2023-04-04T02:48:52;101325.63;;;20.75;63.98
14882;BME280;7533;51.278;12.588;2023-04-04T02:53:55;101326.56;;;20.74;63.77
14882;BME280;7533;51.278;12.588;2023-04-04T02:59:05;101318.59;;;20.73;63.87
14882;BME280;7533;51.278;12.588;2023-04-04T03:04:08;101317.81;;;20.71;64.04
14882;BME280;7533;51.278;12.588;2023-04-04T03:09:11;101310.66;;;20.70;64.13
14882;BME280;7533;51.278;12.588;2023-04-04T03:14:16;101307.19;;;20.68;64.44
14882;BME280;7533;51.278;12.588;2023-04-04T03:19:19;101302.75;;;20.67;64.49
14882;BME280;7533;51.278;12.588;2023-04-04T03:24:24;101298.31;;;20.66;64.76
14882;BME280;7533;51.278;12.588;2023-04-04T03:29:30;101298.63;;;20.59;64.62
14882;BME280;7533;51.278;12.588;2023-04-04T03:34:33;101295.00;;;20.60;64.90
14882;BME280;7533;51.278;12.588;2023-04-04T03:39:36;101294.13;;;20.60;65.05
14882;BME280;7533;51.278;12.588;2023-04-04T03:44:40;101294.19;;;20.58;64.93
14882;BME280;7533;51.278;12.588;2023-04-04T03:49:51;101298.69;;;20.58;64.96
14882;BME280;7533;51.278;12.588;2023-04-04T03:54:54;101298.78;;;20.56;65.04
14882;BME280;7533;51.278;12.588;2023-04-04T03:59:58;101294.44;;;20.54;65.18
14882;BME280;7533;51.278;12.588;2023-04-04T04:05:01;101294.44;;;20.54;65.14
14882;BME280;7533;51.278;12.588;2023-04-04T04:10:05;101290.91;;;20.52;65.31
14882;BME280;7533;51.278;12.588;2023-04-04T04:15:09;101295.50;;;20.50;65.34
14882;BME280;7533;51.278;12.588;2023-04-04T04:20:14;101296.53;;;20.47;65.31
14882;BME280;7533;51.278;12.588;2023-04-04T04:25:22;101294.69;;;20.48;65.48
14882;BME280;7533;51.278;12.588;2023-04-04T04:30:47;101299.28;;;20.46;65.54
14882;BME280;7533;51.278;12.588;2023-04-04T04:35:58;101297.53;;;20.45;65.51
14882;BME280;7533;51.278;12.588;2023-04-04T04:41:09;101295.78;;;20.44;65.35
14882;BME280;7533;51.278;12.588;2023-04-04T04:46:20;101297.66;;;20.42;65.50
14882;BME280;7533;51.278;12.588;2023-04-04T04:51:23;101302.13;;;20.43;65.44
14882;BME280;7533;51.278;12.588;2023-04-04T04:56:28;101303.13;;;20.40;65.52
14882;BME280;7533;51.278;12.588;2023-04-04T05:01:40;101307.63;;;20.40;65.54
14882;BME280;7533;51.278;12.588;2023-04-04T05:06:43;101313.09;;;20.38;65.68
14882;BME280;7533;51.278;12.588;2023-04-04T05:11:47;101305.06;;;20.37;65.75
14882;BME280;7533;51.278;12.588;2023-04-04T05:16:54;101307.75;;;20.37;65.84
14882;BME280;7533;51.278;12.588;2023-04-04T05:22:02;101323.03;;;20.36;65.82
14882;BME280;7533;51.278;12.588;2023-04-04T05:27:19;101326.75;;;20.33;65.78
14882;BME280;7533;51.278;12.588;2023-04-04T05:32:30;101327.63;;;20.34;65.86
14882;BME280;7533;51.278;12.588;2023-04-04T05:37:41;101330.41;;;20.32;65.80
14882;BME280;7533;51.278;12.588;2023-04-04T05:42:54;101330.41;;;20.32;65.81
14882;BME280;7533;51.278;12.588;2023-04-04T05:48:04;101343.84;;;20.32;65.87
14882;BME280;7533;51.278;12.588;2023-04-04T05:53:13;101336.72;;;20.31;65.79
14882;BME280;7533;51.278;12.588;2023-04-04T05:58:20;101338.50;;;20.31;65.83
14882;BME280;7533;51.278;12.588;2023-04-04T06:03:29;101337.63;;;20.30;65.15
14882;BME280;7533;51.278;12.588;2023-04-04T06:08:33;101344.84;;;20.30;65.02
14882;BME280;7533;51.278;12.588;2023-04-04T06:13:53;101352.03;;;20.29;64.46
14882;BME280;7533;51.278;12.588;2023-04-04T06:18:59;101347.53;;;20.30;64.02
14882;BME280;7533;51.278;12.588;2023-04-04T06:24:02;101349.25;;;20.31;63.71
14882;BME280;7533;51.278;12.588;2023-04-04T06:29:05;101347.53;;;20.30;63.63
14882;BME280;7533;51.278;12.588;2023-04-04T06:34:12;101349.25;;;20.31;63.50
14882;BME280;7533;51.278;12.588;2023-04-04T06:39:28;101347.47;;;20.31;63.42
14882;BME280;7533;51.278;12.588;2023-04-04T06:44:34;101349.22;;;20.32;63.22
14882;BME280;7533;51.278;12.588;2023-04-04T06:49:38;101347.41;;;20.33;63.18
14882;BME280;7533;51.278;12.588;2023-04-04T06:54:41;101345.56;;;20.33;63.11
14882;BME280;7533;51.278;12.588;2023-04-04T06:59:45;101343.66;;;20.35;63.17
14882;BME280;7533;51.278;12.588;2023-04-04T07:04:49;101345.34;;;20.38;63.01
14882;BME280;7533;51.278;12.588;2023-04-04T07:09:52;101336.94;;;20.46;63.19
14882;BME280;7533;51.278;12.588;2023-04-04T07:14:55;101339.13;;;20.38;63.49
14882;BME280;7533;51.278;12.588;2023-04-04T07:19:59;101346.81;;;20.45;63.58
14882;BME280;7533;51.278;12.588;2023-04-04T07:25:07;101333.81;;;20.55;63.49
14882;BME280;7533;51.278;12.588;2023-04-04T07:30:11;101335.16;;;20.64;63.37
14882;BME280;7533;51.278;12.588;2023-04-04T07:35:15;101333.03;;;20.70;63.22
14882;BME280;7533;51.278;12.588;2023-04-04T07:40:18;101327.53;;;20.73;62.92
14882;BME280;7533;51.278;12.588;2023-04-04T07:45:22;101331.72;;;20.79;62.56
14882;BME280;7533;51.278;12.588;2023-04-04T07:50:26;101337.66;;;20.85;62.72
14882;BME280;7533;51.278;12.588;2023-04-04T07:55:29;101329.28;;;20.92;62.29
14882;BME280;7533;51.278;12.588;2023-04-04T08:00:31;101330.00;;;20.95;62.05
14882;BME280;7533;51.278;12.588;2023-04-04T08:05:36;101321.63;;;21.01;62.17
14882;BME280;7533;51.278;12.588;2023-04-04T08:10:38;101318.75;;;21.04;61.96
14882;BME280;7533;51.278;12.588;2023-04-04T08:15:42;101318.63;;;21.07;61.88
14882;BME280;7533;51.278;12.588;2023-04-04T08:20:47;101318.38;;;21.12;61.67
14882;BME280;7533;51.278;12.588;2023-04-04T08:25:49;101320.84;;;21.17;61.66
14882;BME280;7533;51.278;12.588;2023-04-04T08:30:53;101316.34;;;21.17;61.45
14882;BME280;7533;51.278;12.588;2023-04-04T08:35:57;101318.84;;;21.20;61.25
14882;BME280;7533;51.278;12.588;2023-04-04T08:41:00;101310.78;;;21.20;61.34
14882;BME280;7533;51.278;12.588;2023-04-04T08:46:04;101316.09;;;21.22;61.47
14882;BME280;7533;51.278;12.588;2023-04-04T08:51:13;101315.13;;;21.23;61.53
14882;BME280;7533;51.278;12.588;2023-04-04T08:56:17;101300.72;;;21.24;61.37
14882;BME280;7533;51.278;12.588;2023-04-04T09:01:21;101309.56;;;21.26;61.14
14882;BME280;7533;51.278;12.588;2023-04-04T09:06:25;101310.41;;;21.28;61.10
14882;BME280;7533;51.278;12.588;2023-04-04T09:11:30;101311.25;;;21.28;61.00
14882;BME280;7533;51.278;12.588;2023-04-04T09:16:33;101309.53;;;21.27;60.83
14882;BME280;7533;51.278;12.588;2023-04-04T09:21:37;101318.41;;;21.29;60.75
14882;BME280;7533;51.278;12.588;2023-04-04T09:26:46;101312.84;;;21.32;60.94
14882;BME280;7533;51.278;12.588;2023-04-04T09:31:49;101313.75;;;21.33;60.62
14882;BME280;7533;51.278;12.588;2023-04-04T09:36:54;101322.59;;;21.35;60.70
14882;BME280;7533;51.278;12.588;2023-04-04T09:42:00;101318.00;;;21.37;60.57
14882;BME280;7533;51.278;12.588;2023-04-04T09:47:23;101328.72;;;21.38;60.40
14882;BME280;7533;51.278;12.588;2023-04-04T09:52:32;101328.63;;;21.40;60.50
14882;BME280;7533;51.278;12.588;2023-04-04T09:57:36;101318.72;;;21.41;60.45
14882;BME280;7533;51.278;12.588;2023-04-04T10:02:46;101322.19;;;21.43;60.48
14882;BME280;7533;51.278;12.588;2023-04-04T10:07:50;101324.88;;;21.43;60.45
14882;BME280;7533;51.278;12.588;2023-04-04T10:12:56;101322.19;;;21.43;60.47
14882;BME280;7533;51.278;12.588;2023-04-04T10:17:59;101316.75;;;21.44;60.24
14882;BME280;7533;51.278;12.588;2023-04-04T10:23:04;101313.09;;;21.45;60.31
14882;BME280;7533;51.278;12.588;2023-04-04T10:28:07;101304.94;;;21.47;60.22
14882;BME280;7533;51.278;12.588;2023-04-04T10:33:24;101300.41;;;21.47;60.42
14882;BME280;7533;51.278;12.588;2023-04-04T10:38:38;101288.84;;;21.45;60.36
14882;BME280;7533;51.278;12.588;2023-04-04T10:43:44;101295.34;;;21.41;60.43
14882;BME280;7533;51.278;12.588;2023-04-04T10:48:48;101287.28;;;21.41;60.54
14882;BME280;7533;51.278;12.588;2023-04-04T10:53:53;101295.44;;;21.22;50.70
14882;BME280;7533;51.278;12.588;2023-04-04T10:59:11;101290.03;;;19.16;40.24
14882;BME280;7533;51.278;12.588;2023-04-04T11:04:17;101276.84;;;18.69;40.31
14882;BME280;7533;51.278;12.588;2023-04-04T11:09:48;101279.28;;;19.16;41.43
14882;BME280;7533;51.278;12.588;2023-04-04T11:14:56;101273.94;;;20.14;43.00
14882;BME280;7533;51.278;12.588;2023-04-04T11:19:59;101266.72;;;20.52;44.67
14882;BME280;7533;51.278;12.588;2023-04-04T11:25:27;101261.78;;;20.79;45.89
14882;BME280;7533;51.278;12.588;2023-04-04T11:30:36;101242.47;;;20.88;46.80
14882;BME280;7533;51.278;12.588;2023-04-04T11:35:45;101250.91;;;20.98;46.85
14882;BME280;7533;51.278;12.588;2023-04-04T11:40:53;101248.09;;;21.01;47.01
14882;BME280;7533;51.278;12.588;2023-04-04T11:46:04;101244.88;;;21.10;47.18
14882;BME280;7533;51.278;12.588;2023-04-04T11:51:09;101239.28;;;21.14;47.72
14882;BME280;7533;51.278;12.588;2023-04-04T11:56:15;101227.84;;;21.27;48.10
14882;BME280;7533;51.278;12.588;2023-04-04T12:01:18;101222.56;;;21.25;48.38
14882;BME280;7533;51.278;12.588;2023-04-04T12:06:22;101231.59;;;21.24;49.05
14882;BME280;7533;51.278;12.588;2023-04-04T12:11:29;101224.47;;;21.23;49.63
14882;BME280;7533;51.278;12.588;2023-04-04T12:16:34;101222.56;;;21.25;50.20
14882;BME280;7533;51.278;12.588;2023-04-04T12:21:37;101213.50;;;21.26;50.88
14882;BME280;7533;51.278;12.588;2023-04-04T12:26:45;101212.03;;;21.21;51.79
14882;BME280;7533;51.278;12.588;2023-04-04T12:31:49;101200.66;;;21.33;52.18
14882;BME280;7533;51.278;12.588;2023-04-04T12:36:55;101203.00;;;21.39;52.53
14882;BME280;7533;51.278;12.588;2023-04-04T12:42:02;101193.88;;;21.42;52.84
14882;BME280;7533;51.278;12.588;2023-04-04T12:47:07;101183.81;;;21.45;53.18
14882;BME280;7533;51.278;12.588;2023-04-04T12:52:16;101181.66;;;21.52;53.59
14882;BME280;7533;51.278;12.588;2023-04-04T12:57:23;101179.03;;;21.66;53.39
14882;BME280;7533;51.278;12.588;2023-04-04T13:02:26;101163.22;;;21.76;53.77
14882;BME280;7533;51.278;12.588;2023-04-04T13:07:33;101157.22;;;21.86;53.80
14882;BME280;7533;51.278;12.588;2023-04-04T13:12:58;101152.69;;;21.87;53.81
14882;BME280;7533;51.278;12.588;2023-04-04T13:18:12;101153.91;;;21.65;54.87
14882;BME280;7533;51.278;12.588;2023-04-04T13:23:16;101150.47;;;21.79;54.88
14882;BME280;7533;51.278;12.588;2023-04-04T13:28:20;101148.16;;;22.03;54.68
14882;BME280;7533;51.278;12.588;2023-04-04T13:33:23;101135.84;;;22.15;54.40
14882;BME280;7533;51.278;12.588;2023-04-04T13:38:27;101135.94;;;22.13;54.62
14882;BME280;7533;51.278;12.588;2023-04-04T13:43:31;101125.56;;;22.22;54.60
14882;BME280;7533;51.278;12.588;2023-04-04T13:48:34;101128.78;;;22.28;54.54
14882;BME280;7533;51.278;12.588;2023-04-04T13:53:37;101118.06;;;22.27;54.61
14882;BME280;7533;51.278;12.588;2023-04-04T13:58:43;101110.41;;;22.35;54.62
14882;BME280;7533;51.278;12.588;2023-04-04T14:03:46;101115.03;;;22.47;54.34
14882;BME280;7533;51.278;12.588;2023-04-04T14:08:49;101110.78;;;22.43;54.76
14882;BME280;7533;51.278;12.588;2023-04-04T14:13:53;101115.78;;;22.35;54.84
14882;BME280;7533;51.278;12.588;2023-04-04T14:18:56;101098.25;;;22.42;55.02
14882;BME280;7533;51.278;12.588;2023-04-04T14:23:59;101105.97;;;22.34;55.20
14882;BME280;7533;51.278;12.588;2023-04-04T14:29:03;101099.44;;;22.52;55.40
14882;BME280;7533;51.278;12.588;2023-04-04T14:34:06;101093.94;;;22.54;54.96
14882;BME280;7533;51.278;12.588;2023-04-04T14:39:09;101089.69;;;22.50;55.35
14882;BME280;7533;51.278;12.588;2023-04-04T14:44:13;101089.03;;;22.60;55.28
14882;BME280;7533;51.278;12.588;2023-04-04T14:49:17;101088.44;;;22.55;55.36
14882;BME280;7533;51.278;12.588;2023-04-04T14:54:19;101087.72;;;22.82;55.17
14882;BME280;7533;51.278;12.588;2023-04-04T14:59:24;101085.59;;;22.58;50.75
14882;BME280;7533;51.278;12.588;2023-04-04T15:04:27;101084.22;;;22.51;53.19
14882;BME280;7533;51.278;12.588;2023-04-04T15:09:30;101081.19;;;22.86;53.05
14882;BME280;7533;51.278;12.588;2023-04-04T15:14:34;101073.28;;;23.26;52.59
14882;BME280;7533;51.278;12.588;2023-04-04T15:19:37;101075.75;;;23.29;52.67
14882;BME280;7533;51.278;12.588;2023-04-04T15:24:42;101070.16;;;23.32;52.74
14882;BME280;7533;51.278;12.588;2023-04-04T15:29:46;101076.59;;;23.43;52.55
14882;BME280;7533;51.278;12.588;2023-04-04T15:34:49;101076.25;;;23.35;51.92
14882;BME280;7533;51.278;12.588;2023-04-04T15:39:52;101074.81;;;23.30;52.51
14882;BME280;7533;51.278;12.588;2023-04-04T15:44:56;101066.88;;;23.41;51.07
14882;BME280;7533;51.278;12.588;2023-04-04T15:49:59;101068.81;;;23.39;50.57
14882;BME280;7533;51.278;12.588;2023-04-04T15:55:03;101065.97;;;23.55;50.10
14882;BME280;7533;51.278;12.588;2023-04-04T16:00:10;101057.19;;;23.65;48.93
14882;BME280;7533;51.278;12.588;2023-04-04T16:05:13;101046.81;;;23.72;49.35
14882;BME280;7533;51.278;12.588;2023-04-04T16:10:16;101048.06;;;23.81;48.07
14882;BME280;7533;51.278;12.588;2023-04-04T16:15:21;101041.25;;;23.88;47.43
14882;BME280;7533;51.278;12.588;2023-04-04T16:20:24;101037.94;;;23.97;47.17
14882;BME280;7533;51.278;12.588;2023-04-04T16:25:27;101044.84;;;24.01;46.56
14882;BME280;7533;51.278;12.588;2023-04-04T16:30:32;101040.31;;;24.01;45.32
14882;BME280;7533;51.278;12.588;2023-04-04T16:35:34;101039.38;;;24.02;45.24
14882;BME280;7533;51.278;12.588;2023-04-04T16:40:37;101023.50;;;23.84;46.76
14882;BME280;7533;51.278;12.588;2023-04-04T16:45:42;101026.44;;;23.81;47.65
14882;BME280;7533;51.278;12.588;2023-04-04T16:50:45;101032.25;;;23.74;48.01
14882;BME280;7533;51.278;12.588;2023-04-04T16:55:48;101026.63;;;23.78;48.70
14882;BME280;7533;51.278;12.588;2023-04-04T17:00:52;101022.91;;;23.66;49.07
14882;BME280;7533;51.278;12.588;2023-04-04T17:05:55;101018.50;;;23.78;49.11
14882;BME280;7533;51.278;12.588;2023-04-04T17:11:00;101020.22;;;23.66;49.47
14882;BME280;7533;51.278;12.588;2023-04-04T17:16:05;101021.72;;;23.43;50.12
14882;BME280;7533;51.278;12.588;2023-04-04T17:21:09;101023.09;;;23.36;50.56
14882;BME280;7533;51.278;12.588;2023-04-04T17:26:11;101024.22;;;23.46;50.88
14882;BME280;7533;51.278;12.588;2023-04-04T17:31:16;101018.88;;;23.59;50.70
14882;BME280;7533;51.278;12.588;2023-04-04T17:36:19;101024.41;;;23.43;50.21
14882;BME280;7533;51.278;12.588;2023-04-04T17:41:22;101012.28;;;23.36;50.30
14882;BME280;7533;51.278;12.588;2023-04-04T17:46:26;101020.13;;;23.26;50.61
14882;BME280;7533;51.278;12.588;2023-04-04T17:51:30;101014.00;;;23.37;50.84
14882;BME280;7533;51.278;12.588;2023-04-04T17:56:33;101023.00;;;23.23;51.27
14882;BME280;7533;51.278;12.588;2023-04-04T18:01:37;101030.25;;;23.22;51.35
14882;BME280;7533;51.278;12.588;2023-04-04T18:06:41;101029.47;;;23.20;51.42
14882;BME280;7533;51.278;12.588;2023-04-04T18:11:44;101028.56;;;22.93;52.13
14882;BME280;7533;51.278;12.588;2023-04-04T18:16:48;101027.28;;;22.99;52.20
14882;BME280;7533;51.278;12.588;2023-04-04T18:21:52;101036.06;;;23.02;52.20
14882;BME280;7533;51.278;12.588;2023-04-04T18:27:00;101034.03;;;23.06;52.42
14882;BME280;7533;51.278;12.588;2023-04-04T18:32:04;101029.72;;;23.03;52.46
14882;BME280;7533;51.278;12.588;2023-04-04T18:37:07;101029.31;;;22.95;52.56
14882;BME280;7533;51.278;12.588;2023-04-04T18:42:10;101032.00;;;22.95;52.51
14882;BME280;7533;51.278;12.588;2023-04-04T18:47:14;101025.28;;;22.88;52.64
14882;BME280;7533;51.278;12.588;2023-04-04T18:52:17;101037.19;;;22.84;52.87
14882;BME280;7533;51.278;12.588;2023-04-04T18:57:20;101032.88;;;22.81;52.87
14882;BME280;7533;51.278;12.588;2023-04-04T19:02:25;101038.66;;;22.75;53.05
14882;BME280;7533;51.278;12.588;2023-04-04T19:07:30;101033.25;;;22.75;52.79
14882;BME280;7533;51.278;12.588;2023-04-04T19:12:33;101042.22;;;22.76;52.65
14882;BME280;7533;51.278;12.588;2023-04-04T19:17:37;101043.19;;;22.75;52.48
14882;BME280;7533;51.278;12.588;2023-04-04T19:22:40;101041.47;;;22.74;52.34
14882;BME280;7533;51.278;12.588;2023-04-04T19:27:43;101037.22;;;22.69;52.29
14882;BME280;7533;51.278;12.588;2023-04-04T19:32:47;101032.84;;;22.67;52.22
14882;BME280;7533;51.278;12.588;2023-04-04T19:37:50;101033.81;;;22.66;52.35
14882;BME280;7533;51.278;12.588;2023-04-04T19:42:53;101038.34;;;22.65;52.16
14882;BME280;7533;51.278;12.588;2023-04-04T19:47:57;101034.91;;;22.63;52.15
14882;BME280;7533;51.278;12.588;2023-04-04T19:53:01;101034.69;;;22.66;52.00
14882;BME280;7533;51.278;12.588;2023-04-04T19:58:04;101038.25;;;22.67;51.86
14882;BME280;7533;51.278;12.588;2023-04-04T20:03:27;101033.75;;;22.67;51.84
14882;BME280;7533;51.278;12.588;2023-04-04T20:08:41;101035.75;;;22.64;51.80
14882;BME280;7533;51.278;12.588;2023-04-04T20:13:48;101028.53;;;22.64;51.62
14882;BME280;7533;51.278;12.588;2023-04-04T20:18:53;101027.66;;;22.64;51.69
14882;BME280;7533;51.278;12.588;2023-04-04T20:23:57;101032.97;;;22.65;51.44
14882;BME280;7533;51.278;12.588;2023-04-04T20:29:00;101024.00;;;22.65;51.51
14882;BME280;7533;51.278;12.588;2023-04-04T20:34:06;101024.09;;;22.63;51.43
14882;BME280;7533;51.278;12.588;2023-04-04T20:39:35;101029.41;;;22.65;51.30
14882;BME280;7533;51.278;12.588;2023-04-04T20:44:38;101023.13;;;22.64;51.51
14882;BME280;7533;51.278;12.588;2023-04-04T20:49:42;101023.63;;;22.57;51.92
14882;BME280;7533;51.278;12.588;2023-04-04T20:54:45;101030.28;;;22.51;52.56
14882;BME280;7533;51.278;12.588;2023-04-04T20:59:48;101022.63;;;22.43;52.87
14882;BME280;7533;51.278;12.588;2023-04-04T21:04:52;101035.53;;;22.38;53.01
14882;BME280;7533;51.278;12.588;2023-04-04T21:09:56;101028.78;;;22.31;53.32
14882;BME280;7533;51.278;12.588;2023-04-04T21:14:59;101036.97;;;22.30;53.43
14882;BME280;7533;51.278;12.588;2023-04-04T21:20:13;101019.66;;;22.34;53.59
14882;BME280;7533;51.278;12.588;2023-04-04T21:25:17;101017.50;;;22.39;53.52
14882;BME280;7533;51.278;12.588;2023-04-04T21:30:42;101011.94;;;22.42;53.63
14882;BME280;7533;51.278;12.588;2023-04-04T21:35:48;101005.47;;;22.44;53.61
14882;BME280;7533;51.278;12.588;2023-04-04T21:40:51;101006.06;;;22.50;53.72
14882;BME280;7533;51.278;12.588;2023-04-04T21:45:54;101011.78;;;22.45;53.80
14882;BME280;7533;51.278;12.588;2023-04-04T21:50:58;100999.72;;;22.51;53.92
14882;BME280;7533;51.278;12.588;2023-04-04T21:56:01;100996.13;;;22.50;53.98
14882;BME280;7533;51.278;12.588;2023-04-04T22:01:04;101000.00;;;22.46;54.08
14882;BME280;7533;51.278;12.588;2023-04-04T22:06:08;100988.03;;;22.50;54.12
14882;BME280;7533;51.278;12.588;2023-04-04T22:11:11;100982.56;;;22.52;54.22
14882;BME280;7533;51.278;12.588;2023-04-04T22:16:15;100983.44;;;22.52;54.23
14882;BME280;7533;51.278;12.588;2023-04-04T22:21:20;100974.75;;;22.47;54.56
14882;BME280;7533;51.278;12.588;2023-04-04T22:26:27;100982.38;;;22.40;54.84
14882;BME280;7533;51.278;12.588;2023-04-04T22:31:36;100982.84;;;22.33;55.10
14882;BME280;7533;51.278;12.588;2023-04-04T22:36:41;100975.06;;;22.28;55.30
14882;BME280;7533;51.278;12.588;2023-04-04T22:41:44;100978.09;;;22.22;55.51
14882;BME280;7533;51.278;12.588;2023-04-04T22:46:47;100974.63;;;22.20;55.70
14882;BME280;7533;51.278;12.588;2023-04-04T22:51:51;100974.25;;;22.12;55.89
14882;BME280;7533;51.278;12.588;2023-04-04T22:56:55;100978.22;;;22.05;56.16
14882;BME280;7533;51.278;12.588;2023-04-04T23:01:59;100967.66;;;22.02;56.35
14882;BME280;7533;51.278;12.588;2023-04-04T23:07:03;100973.16;;;22.00;56.39
14882;BME280;7533;51.278;12.588;2023-04-04T23:12:06;100973.50;;;21.94;56.69
14882;BME280;7533;51.278;12.588;2023-04-04T23:17:09;100968.41;;;21.89;56.77
14882;BME280;7533;51.278;12.588;2023-04-04T23:22:13;100966.25;;;21.80;57.07
14882;BME280;7533;51.278;12.588;2023-04-04T23:27:18;100959.41;;;21.75;57.21
14882;BME280;7533;51.278;12.588;2023-04-04T23:32:21;100971.25;;;21.72;57.53
14882;BME280;7533;51.278;12.588;2023-04-04T23:37:26;100960.75;;;21.68;57.52
14882;BME280;7533;51.278;12.588;2023-04-04T23:42:29;100958.41;;;21.61;57.83
14882;BME280;7533;51.278;12.588;2023-04-04T23:47:31;100949.72;;;21.56;57.88
14882;BME280;7533;51.278;12.588;2023-04-04T23:52:36;100955.38;;;21.52;58.16
14882;BME280;7533;51.278;12.588;2023-04-04T23:57:39;100947.47;;;21.49;58.57
